Gosberton, United Kingdom
Current Conditions -  °F | °C
As of 2:50 PM on Thursday 23 Oct 2014 (Local Time) from EGXC Reporting Station
Broken Clouds Broken Clouds  
Wind Chill: 59°   Ceiling: 5000
Heat Index: 59°   Visibility: 6mi
Dew Point: 54°   Wind: 10mph
Humidity: 82%   Direction: 190°S
Pressure: 29.97"   Gusts: NA
Location:  52.87°N, 0.16°W
Report Text: EGXC 231350Z 19009KT 9999 FEW018 BKN050 15/12 Q1015 BLU TEMPO SCT018 WHT
Loading
Personal Weather Stations






























Interactive Weather Map New forecast layout! Learn more

10-Day Weather Forecast

Advertisements
Track Severe Weather on mobile